sensor_id;sensor_type;location;lat;lon;timestamp;P1;durP1;ratioP1;P2;durP2;ratioP2
15633;SDS011;14654;48.898;8.308;2023-02-03T00:01:19;3.30;;;2.73;;
15633;SDS011;14654;48.898;8.308;2023-02-03T00:03:44;4.77;;;2.60;;
15633;SDS011;14654;48.898;8.308;2023-02-03T00:06:10;3.57;;;2.80;;
15633;SDS011;14654;48.898;8.308;2023-02-03T00:08:36;4.40;;;2.53;;
15633;SDS011;14654;48.898;8.308;2023-02-03T00:11:02;3.80;;;2.33;;
15633;SDS011;14654;48.898;8.308;2023-02-03T00:13:27;3.87;;;2.30;;
15633;SDS011;14654;48.898;8.308;2023-02-03T00:15:53;3.77;;;2.57;;
15633;SDS011;14654;48.898;8.308;2023-02-03T00:18:18;3.37;;;2.10;;
15633;SDS011;14654;48.898;8.308;2023-02-03T00:20:43;3.13;;;2.40;;
15633;SDS011;14654;48.898;8.308;2023-02-03T00:23:09;3.87;;;2.43;;
15633;SDS011;14654;48.898;8.308;2023-02-03T00:25:36;3.23;;;2.10;;
15633;SDS011;14654;48.898;8.308;2023-02-03T00:28:01;2.53;;;1.97;;
15633;SDS011;14654;48.898;8.308;2023-02-03T00:30:28;2.60;;;2.00;;
15633;SDS011;14654;48.898;8.308;2023-02-03T00:32:53;3.10;;;2.10;;
15633;SDS011;14654;48.898;8.308;2023-02-03T00:35:19;3.03;;;1.93;;
15633;SDS011;14654;48.898;8.308;2023-02-03T00:37:49;3.40;;;2.13;;
15633;SDS011;14654;48.898;8.308;2023-02-03T00:40:19;3.03;;;2.07;;
15633;SDS011;14654;48.898;8.308;2023-02-03T00:42:45;2.57;;;2.00;;
15633;SDS011;14654;48.898;8.308;2023-02-03T00:45:11;3.33;;;2.43;;
15633;SDS011;14654;48.898;8.308;2023-02-03T00:47:36;3.03;;;2.70;;
15633;SDS011;14654;48.898;8.308;2023-02-03T00:50:01;3.33;;;2.33;;
15633;SDS011;14654;48.898;8.308;2023-02-03T00:52:27;4.00;;;2.33;;
15633;SDS011;14654;48.898;8.308;2023-02-03T00:54:52;3.60;;;2.50;;
15633;SDS011;14654;48.898;8.308;2023-02-03T00:57:18;3.77;;;2.70;;
15633;SDS011;14654;48.898;8.308;2023-02-03T00:59:43;2.97;;;2.03;;
15633;SDS011;14654;48.898;8.308;2023-02-03T01:02:08;3.97;;;2.23;;
15633;SDS011;14654;48.898;8.308;2023-02-03T01:04:33;3.53;;;2.63;;
15633;SDS011;14654;48.898;8.308;2023-02-03T01:06:59;2.83;;;1.90;;
15633;SDS011;14654;48.898;8.308;2023-02-03T01:09:24;2.30;;;2.03;;
15633;SDS011;14654;48.898;8.308;2023-02-03T01:11:50;3.07;;;2.23;;
15633;SDS011;14654;48.898;8.308;2023-02-03T01:14:15;2.23;;;1.93;;
15633;SDS011;14654;48.898;8.308;2023-02-03T01:16:41;3.10;;;2.07;;
15633;SDS011;14654;48.898;8.308;2023-02-03T01:19:06;2.40;;;1.90;;
15633;SDS011;14654;48.898;8.308;2023-02-03T01:21:31;2.20;;;1.80;;
15633;SDS011;14654;48.898;8.308;2023-02-03T01:23:57;2.07;;;1.87;;
15633;SDS011;14654;48.898;8.308;2023-02-03T01:26:23;2.50;;;1.83;;
15633;SDS011;14654;48.898;8.308;2023-02-03T01:28:56;1.93;;;1.73;;
15633;SDS011;14654;48.898;8.308;2023-02-03T01:31:27;3.57;;;1.80;;
15633;SDS011;14654;48.898;8.308;2023-02-03T01:33:54;1.87;;;1.70;;
15633;SDS011;14654;48.898;8.308;2023-02-03T01:36:22;2.60;;;1.93;;
15633;SDS011;14654;48.898;8.308;2023-02-03T01:38:49;2.00;;;1.70;;
15633;SDS011;14654;48.898;8.308;2023-02-03T01:41:16;3.63;;;2.03;;
15633;SDS011;14654;48.898;8.308;2023-02-03T01:43:47;2.13;;;1.50;;
15633;SDS011;14654;48.898;8.308;2023-02-03T01:46:17;2.70;;;1.77;;
15633;SDS011;14654;48.898;8.308;2023-02-03T01:48:49;2.10;;;1.60;;
15633;SDS011;14654;48.898;8.308;2023-02-03T01:51:16;2.63;;;1.73;;
15633;SDS011;14654;48.898;8.308;2023-02-03T01:53:42;2.90;;;1.50;;
15633;SDS011;14654;48.898;8.308;2023-02-03T01:56:08;2.83;;;1.60;;
15633;SDS011;14654;48.898;8.308;2023-02-03T01:58:35;2.27;;;1.70;;
15633;SDS011;14654;48.898;8.308;2023-02-03T02:01:03;2.10;;;1.70;;
15633;SDS011;14654;48.898;8.308;2023-02-03T02:03:30;1.67;;;1.40;;
15633;SDS011;14654;48.898;8.308;2023-02-03T02:06:03;3.17;;;1.73;;
15633;SDS011;14654;48.898;8.308;2023-02-03T02:08:33;3.73;;;2.00;;
15633;SDS011;14654;48.898;8.308;2023-02-03T02:11:00;3.90;;;2.03;;
15633;SDS011;14654;48.898;8.308;2023-02-03T02:13:26;3.57;;;2.27;;
15633;SDS011;14654;48.898;8.308;2023-02-03T02:16:06;3.17;;;1.90;;
15633;SDS011;14654;48.898;8.308;2023-02-03T02:18:44;2.33;;;1.70;;
15633;SDS011;14654;48.898;8.308;2023-02-03T02:39:39;2.37;;;2.00;;
15633;SDS011;14654;48.898;8.308;2023-02-03T02:42:14;2.50;;;2.00;;
15633;SDS011;14654;48.898;8.308;2023-02-03T02:44:51;2.40;;;1.77;;
15633;SDS011;14654;48.898;8.308;2023-02-03T02:47:21;2.00;;;1.90;;
15633;SDS011;14654;48.898;8.308;2023-02-03T02:49:57;2.13;;;1.80;;
15633;SDS011;14654;48.898;8.308;2023-02-03T02:52:29;3.10;;;1.60;;
15633;SDS011;14654;48.898;8.308;2023-02-03T02:55:00;2.10;;;1.70;;
15633;SDS011;14654;48.898;8.308;2023-02-03T02:57:29;1.93;;;1.80;;
15633;SDS011;14654;48.898;8.308;2023-02-03T02:59:58;3.03;;;1.70;;
15633;SDS011;14654;48.898;8.308;2023-02-03T03:02:30;2.90;;;1.40;;
15633;SDS011;14654;48.898;8.308;2023-02-03T03:04:59;2.50;;;1.40;;
15633;SDS011;14654;48.898;8.308;2023-02-03T03:07:26;2.70;;;1.53;;
15633;SDS011;14654;48.898;8.308;2023-02-03T03:09:59;2.00;;;1.50;;
15633;SDS011;14654;48.898;8.308;2023-02-03T03:12:30;3.27;;;1.70;;
15633;SDS011;14654;48.898;8.308;2023-02-03T03:15:00;1.73;;;1.40;;
15633;SDS011;14654;48.898;8.308;2023-02-03T03:17:31;2.27;;;1.50;;
15633;SDS011;14654;48.898;8.308;2023-02-03T03:20:03;1.43;;;1.33;;
15633;SDS011;14654;48.898;8.308;2023-02-03T03:22:34;1.50;;;1.17;;
15633;SDS011;14654;48.898;8.308;2023-02-03T03:25:09;1.90;;;1.27;;
15633;SDS011;14654;48.898;8.308;2023-02-03T03:27:41;2.63;;;1.47;;
15633;SDS011;14654;48.898;8.308;2023-02-03T03:30:13;2.30;;;1.17;;
15633;SDS011;14654;48.898;8.308;2023-02-03T03:32:48;2.33;;;1.43;;
15633;SDS011;14654;48.898;8.308;2023-02-03T03:35:14;2.07;;;1.30;;
15633;SDS011;14654;48.898;8.308;2023-02-03T03:37:42;1.10;;;1.00;;
15633;SDS011;14654;48.898;8.308;2023-02-03T03:40:17;2.87;;;1.20;;
15633;SDS011;14654;48.898;8.308;2023-02-03T03:43:34;1.47;;;1.30;;
15633;SDS011;14654;48.898;8.308;2023-02-03T03:48:39;1.43;;;1.27;;
15633;SDS011;14654;48.898;8.308;2023-02-03T03:53:55;1.23;;;0.93;;
15633;SDS011;14654;48.898;8.308;2023-02-03T03:56:26;1.80;;;1.20;;
15633;SDS011;14654;48.898;8.308;2023-02-03T03:58:56;2.40;;;1.30;;
15633;SDS011;14654;48.898;8.308;2023-02-03T04:01:23;1.40;;;1.30;;
15633;SDS011;14654;48.898;8.308;2023-02-03T04:03:58;1.57;;;1.20;;
15633;SDS011;14654;48.898;8.308;2023-02-03T04:06:27;1.13;;;0.80;;
15633;SDS011;14654;48.898;8.308;2023-02-03T04:08:52;1.27;;;1.00;;
15633;SDS011;14654;48.898;8.308;2023-02-03T04:11:17;2.40;;;1.10;;
15633;SDS011;14654;48.898;8.308;2023-02-03T04:14:01;3.57;;;1.47;;
15633;SDS011;14654;48.898;8.308;2023-02-03T04:16:27;1.83;;;1.30;;
15633;SDS011;14654;48.898;8.308;2023-02-03T04:18:53;2.57;;;1.30;;
15633;SDS011;14654;48.898;8.308;2023-02-03T04:21:18;1.47;;;1.10;;
15633;SDS011;14654;48.898;8.308;2023-02-03T04:23:43;2.03;;;1.30;;
15633;SDS011;14654;48.898;8.308;2023-02-03T04:26:09;1.70;;;1.20;;
15633;SDS011;14654;48.898;8.308;2023-02-03T04:28:34;1.97;;;1.10;;
15633;SDS011;14654;48.898;8.308;2023-02-03T04:30:59;2.13;;;1.40;;
15633;SDS011;14654;48.898;8.308;2023-02-03T04:33:25;1.30;;;1.00;;
15633;SDS011;14654;48.898;8.308;2023-02-03T04:35:50;2.03;;;1.30;;
15633;SDS011;14654;48.898;8.308;2023-02-03T04:38:16;1.40;;;1.03;;
15633;SDS011;14654;48.898;8.308;2023-02-03T04:40:41;2.10;;;1.17;;
15633;SDS011;14654;48.898;8.308;2023-02-03T04:43:09;1.13;;;1.00;;
15633;SDS011;14654;48.898;8.308;2023-02-03T04:45:35;1.23;;;0.93;;
15633;SDS011;14654;48.898;8.308;2023-02-03T04:48:00;2.37;;;1.40;;
15633;SDS011;14654;48.898;8.308;2023-02-03T04:50:27;2.33;;;1.20;;
15633;SDS011;14654;48.898;8.308;2023-02-03T04:52:53;1.70;;;0.90;;
15633;SDS011;14654;48.898;8.308;2023-02-03T04:55:18;1.80;;;1.13;;
15633;SDS011;14654;48.898;8.308;2023-02-03T04:57:43;1.27;;;1.10;;
15633;SDS011;14654;48.898;8.308;2023-02-03T05:00:09;2.00;;;1.20;;
15633;SDS011;14654;48.898;8.308;2023-02-03T05:02:35;2.57;;;1.20;;
15633;SDS011;14654;48.898;8.308;2023-02-03T05:05:00;1.30;;;1.07;;
15633;SDS011;14654;48.898;8.308;2023-02-03T05:07:25;1.23;;;1.13;;
15633;SDS011;14654;48.898;8.308;2023-02-03T05:09:51;2.10;;;1.10;;
15633;SDS011;14654;48.898;8.308;2023-02-03T05:12:16;1.57;;;0.97;;
15633;SDS011;14654;48.898;8.308;2023-02-03T05:14:41;1.93;;;1.10;;
15633;SDS011;14654;48.898;8.308;2023-02-03T05:17:06;1.57;;;1.03;;
15633;SDS011;14654;48.898;8.308;2023-02-03T05:19:32;2.40;;;0.93;;
15633;SDS011;14654;48.898;8.308;2023-02-03T05:21:57;3.03;;;1.30;;
15633;SDS011;14654;48.898;8.308;2023-02-03T05:24:22;2.20;;;1.20;;
15633;SDS011;14654;48.898;8.308;2023-02-03T05:26:48;2.20;;;1.40;;
15633;SDS011;14654;48.898;8.308;2023-02-03T05:29:13;2.37;;;1.20;;
15633;SDS011;14654;48.898;8.308;2023-02-03T05:31:38;3.03;;;1.40;;
15633;SDS011;14654;48.898;8.308;2023-02-03T05:34:04;2.30;;;1.20;;
15633;SDS011;14654;48.898;8.308;2023-02-03T05:36:29;1.73;;;1.27;;
15633;SDS011;14654;48.898;8.308;2023-02-03T05:38:55;2.80;;;1.40;;
15633;SDS011;14654;48.898;8.308;2023-02-03T05:41:20;1.90;;;1.10;;
15633;SDS011;14654;48.898;8.308;2023-02-03T05:44:04;2.53;;;1.37;;
15633;SDS011;14654;48.898;8.308;2023-02-03T05:46:29;2.47;;;1.27;;
15633;SDS011;14654;48.898;8.308;2023-02-03T05:48:54;3.27;;;1.20;;
15633;SDS011;14654;48.898;8.308;2023-02-03T05:51:20;1.63;;;1.30;;
15633;SDS011;14654;48.898;8.308;2023-02-03T05:53:45;2.10;;;1.33;;
15633;SDS011;14654;48.898;8.308;2023-02-03T05:56:10;3.17;;;1.70;;
15633;SDS011;14654;48.898;8.308;2023-02-03T05:58:36;3.20;;;1.77;;
15633;SDS011;14654;48.898;8.308;2023-02-03T06:01:01;2.27;;;1.70;;
15633;SDS011;14654;48.898;8.308;2023-02-03T06:03:26;3.23;;;1.80;;
15633;SDS011;14654;48.898;8.308;2023-02-03T06:05:52;2.00;;;1.27;;
15633;SDS011;14654;48.898;8.308;2023-02-03T06:08:17;1.90;;;1.23;;
15633;SDS011;14654;48.898;8.308;2023-02-03T06:10:42;3.40;;;1.53;;
15633;SDS011;14654;48.898;8.308;2023-02-03T06:13:12;1.67;;;1.50;;
15633;SDS011;14654;48.898;8.308;2023-02-03T06:15:38;2.20;;;1.80;;
15633;SDS011;14654;48.898;8.308;2023-02-03T06:18:04;3.70;;;1.50;;
15633;SDS011;14654;48.898;8.308;2023-02-03T06:20:30;1.70;;;1.40;;
15633;SDS011;14654;48.898;8.308;2023-02-03T06:22:55;3.63;;;1.53;;
15633;SDS011;14654;48.898;8.308;2023-02-03T06:25:21;2.30;;;1.47;;
15633;SDS011;14654;48.898;8.308;2023-02-03T06:27:48;3.07;;;1.73;;
15633;SDS011;14654;48.898;8.308;2023-02-03T06:30:13;3.30;;;1.70;;
15633;SDS011;14654;48.898;8.308;2023-02-03T06:32:38;1.93;;;1.40;;
15633;SDS011;14654;48.898;8.308;2023-02-03T06:35:04;2.43;;;1.63;;
15633;SDS011;14654;48.898;8.308;2023-02-03T06:37:30;2.20;;;1.70;;
15633;SDS011;14654;48.898;8.308;2023-02-03T06:39:56;2.77;;;1.50;;
15633;SDS011;14654;48.898;8.308;2023-02-03T06:42:21;3.50;;;1.80;;
15633;SDS011;14654;48.898;8.308;2023-02-03T06:44:46;3.17;;;2.03;;
15633;SDS011;14654;48.898;8.308;2023-02-03T06:47:12;4.03;;;1.93;;
15633;SDS011;14654;48.898;8.308;2023-02-03T06:49:37;2.03;;;1.60;;
15633;SDS011;14654;48.898;8.308;2023-02-03T06:52:02;3.27;;;2.00;;
15633;SDS011;14654;48.898;8.308;2023-02-03T06:54:28;2.87;;;2.20;;
15633;SDS011;14654;48.898;8.308;2023-02-03T06:56:53;2.10;;;1.50;;
15633;SDS011;14654;48.898;8.308;2023-02-03T06:59:18;1.80;;;1.67;;
15633;SDS011;14654;48.898;8.308;2023-02-03T07:01:44;3.93;;;2.00;;
15633;SDS011;14654;48.898;8.308;2023-02-03T07:04:09;3.27;;;1.93;;
15633;SDS011;14654;48.898;8.308;2023-02-03T07:06:34;2.83;;;1.80;;
15633;SDS011;14654;48.898;8.308;2023-02-03T07:09:00;3.03;;;2.30;;
15633;SDS011;14654;48.898;8.308;2023-02-03T07:11:27;3.67;;;2.10;;
15633;SDS011;14654;48.898;8.308;2023-02-03T07:13:53;2.63;;;2.20;;
15633;SDS011;14654;48.898;8.308;2023-02-03T07:16:19;3.03;;;2.00;;
15633;SDS011;14654;48.898;8.308;2023-02-03T07:18:45;2.93;;;1.93;;
15633;SDS011;14654;48.898;8.308;2023-02-03T07:21:11;2.47;;;2.00;;
15633;SDS011;14654;48.898;8.308;2023-02-03T07:23:36;3.73;;;2.27;;
15633;SDS011;14654;48.898;8.308;2023-02-03T07:26:02;3.80;;;1.90;;
15633;SDS011;14654;48.898;8.308;2023-02-03T07:28:31;3.07;;;2.27;;
15633;SDS011;14654;48.898;8.308;2023-02-03T07:30:57;3.60;;;2.10;;
15633;SDS011;14654;48.898;8.308;2023-02-03T07:33:22;2.90;;;1.87;;
15633;SDS011;14654;48.898;8.308;2023-02-03T07:35:51;2.83;;;2.10;;
15633;SDS011;14654;48.898;8.308;2023-02-03T07:38:17;3.00;;;2.00;;
15633;SDS011;14654;48.898;8.308;2023-02-03T07:40:43;4.70;;;2.60;;
15633;SDS011;14654;48.898;8.308;2023-02-03T07:43:08;3.87;;;2.17;;
15633;SDS011;14654;48.898;8.308;2023-02-03T07:45:33;3.87;;;2.37;;
15633;SDS011;14654;48.898;8.308;2023-02-03T07:47:59;2.40;;;1.80;;
15633;SDS011;14654;48.898;8.308;2023-02-03T07:50:24;3.10;;;2.03;;
15633;SDS011;14654;48.898;8.308;2023-02-03T07:52:50;4.40;;;2.30;;
15633;SDS011;14654;48.898;8.308;2023-02-03T07:55:16;3.17;;;2.00;;
15633;SDS011;14654;48.898;8.308;2023-02-03T07:57:41;2.83;;;2.53;;
15633;SDS011;14654;48.898;8.308;2023-02-03T08:00:08;2.67;;;2.07;;
15633;SDS011;14654;48.898;8.308;2023-02-03T08:02:35;3.40;;;2.07;;
15633;SDS011;14654;48.898;8.308;2023-02-03T08:05:00;3.33;;;2.30;;
15633;SDS011;14654;48.898;8.308;2023-02-03T08:07:25;2.77;;;2.07;;
15633;SDS011;14654;48.898;8.308;2023-02-03T08:09:51;2.27;;;1.77;;
15633;SDS011;14654;48.898;8.308;2023-02-03T08:12:16;4.07;;;2.13;;
15633;SDS011;14654;48.898;8.308;2023-02-03T08:14:41;3.97;;;2.07;;
15633;SDS011;14654;48.898;8.308;2023-02-03T08:17:06;2.77;;;1.90;;
15633;SDS011;14654;48.898;8.308;2023-02-03T08:19:32;3.53;;;2.27;;
15633;SDS011;14654;48.898;8.308;2023-02-03T08:21:57;2.27;;;1.93;;
15633;SDS011;14654;48.898;8.308;2023-02-03T08:24:23;11.33;;;8.77;;
15633;SDS011;14654;48.898;8.308;2023-02-03T08:26:49;5.47;;;3.77;;
15633;SDS011;14654;48.898;8.308;2023-02-03T08:29:14;5.13;;;4.53;;
15633;SDS011;14654;48.898;8.308;2023-02-03T08:31:40;5.20;;;4.17;;
15633;SDS011;14654;48.898;8.308;2023-02-03T08:34:06;4.37;;;3.77;;
15633;SDS011;14654;48.898;8.308;2023-02-03T08:36:31;2.70;;;2.43;;
15633;SDS011;14654;48.898;8.308;2023-02-03T08:38:56;3.73;;;2.43;;
15633;SDS011;14654;48.898;8.308;2023-02-03T08:41:22;3.27;;;2.20;;
15633;SDS011;14654;48.898;8.308;2023-02-03T08:43:47;3.77;;;2.17;;
15633;SDS011;14654;48.898;8.308;2023-02-03T08:46:13;3.37;;;1.67;;
15633;SDS011;14654;48.898;8.308;2023-02-03T08:48:38;4.20;;;2.53;;
15633;SDS011;14654;48.898;8.308;2023-02-03T08:51:14;4.40;;;2.17;;
15633;SDS011;14654;48.898;8.308;2023-02-03T08:53:40;4.37;;;2.23;;
15633;SDS011;14654;48.898;8.308;2023-02-03T08:56:06;3.87;;;2.00;;
15633;SDS011;14654;48.898;8.308;2023-02-03T08:58:33;4.03;;;2.30;;
15633;SDS011;14654;48.898;8.308;2023-02-03T09:01:08;3.90;;;1.93;;
15633;SDS011;14654;48.898;8.308;2023-02-03T09:03:38;3.83;;;2.27;;
15633;SDS011;14654;48.898;8.308;2023-02-03T09:06:04;4.17;;;2.30;;
15633;SDS011;14654;48.898;8.308;2023-02-03T09:08:31;4.33;;;2.20;;
15633;SDS011;14654;48.898;8.308;2023-02-03T09:10:57;3.33;;;2.17;;
15633;SDS011;14654;48.898;8.308;2023-02-03T09:13:22;2.80;;;2.40;;
15633;SDS011;14654;48.898;8.308;2023-02-03T09:15:48;3.37;;;2.43;;
15633;SDS011;14654;48.898;8.308;2023-02-03T09:18:13;4.13;;;2.30;;
15633;SDS011;14654;48.898;8.308;2023-02-03T09:20:38;3.67;;;1.87;;
15633;SDS011;14654;48.898;8.308;2023-02-03T09:23:04;2.40;;;2.20;;
15633;SDS011;14654;48.898;8.308;2023-02-03T09:25:29;3.17;;;2.27;;
15633;SDS011;14654;48.898;8.308;2023-02-03T09:27:55;4.03;;;2.60;;
15633;SDS011;14654;48.898;8.308;2023-02-03T09:30:20;2.93;;;2.13;;
15633;SDS011;14654;48.898;8.308;2023-02-03T09:32:45;3.23;;;2.00;;
15633;SDS011;14654;48.898;8.308;2023-02-03T09:35:17;1.93;;;1.80;;
15633;SDS011;14654;48.898;8.308;2023-02-03T09:37:43;4.73;;;2.00;;
15633;SDS011;14654;48.898;8.308;2023-02-03T09:40:09;3.33;;;2.20;;
15633;SDS011;14654;48.898;8.308;2023-02-03T09:45:31;3.13;;;2.20;;
15633;SDS011;14654;48.898;8.308;2023-02-03T09:47:58;4.03;;;2.20;;
15633;SDS011;14654;48.898;8.308;2023-02-03T09:50:31;4.13;;;1.93;;
15633;SDS011;14654;48.898;8.308;2023-02-03T09:53:01;2.83;;;2.07;;
15633;SDS011;14654;48.898;8.308;2023-02-03T09:55:33;3.23;;;2.00;;
15633;SDS011;14654;48.898;8.308;2023-02-03T09:58:13;3.10;;;2.00;;
15633;SDS011;14654;48.898;8.308;2023-02-03T10:01:00;2.07;;;1.80;;
15633;SDS011;14654;48.898;8.308;2023-02-03T10:03:43;3.50;;;2.00;;
15633;SDS011;14654;48.898;8.308;2023-02-03T10:18:05;2.93;;;1.97;;
15633;SDS011;14654;48.898;8.308;2023-02-03T10:20:39;2.97;;;1.90;;
15633;SDS011;14654;48.898;8.308;2023-02-03T10:23:31;2.10;;;1.90;;
15633;SDS011;14654;48.898;8.308;2023-02-03T10:25:58;2.33;;;1.70;;
15633;SDS011;14654;48.898;8.308;2023-02-03T10:28:35;3.17;;;1.83;;
15633;SDS011;14654;48.898;8.308;2023-02-03T10:31:15;2.80;;;2.23;;
15633;SDS011;14654;48.898;8.308;2023-02-03T10:33:43;4.27;;;2.97;;
15633;SDS011;14654;48.898;8.308;2023-02-03T10:36:22;8.63;;;8.00;;
15633;SDS011;14654;48.898;8.308;2023-02-03T10:39:28;4.33;;;3.93;;
15633;SDS011;14654;48.898;8.308;2023-02-03T10:41:57;3.53;;;2.30;;
15633;SDS011;14654;48.898;8.308;2023-02-03T10:44:30;3.87;;;2.97;;
15633;SDS011;14654;48.898;8.308;2023-02-03T10:47:00;4.03;;;2.60;;
15633;SDS011;14654;48.898;8.308;2023-02-03T10:49:26;3.90;;;2.67;;
15633;SDS011;14654;48.898;8.308;2023-02-03T10:51:57;2.83;;;2.60;;
15633;SDS011;14654;48.898;8.308;2023-02-03T10:54:31;4.57;;;4.10;;
15633;SDS011;14654;48.898;8.308;2023-02-03T10:57:02;6.03;;;4.60;;
15633;SDS011;14654;48.898;8.308;2023-02-03T10:59:30;4.47;;;3.00;;
15633;SDS011;14654;48.898;8.308;2023-02-03T11:01:59;3.23;;;2.47;;
15633;SDS011;14654;48.898;8.308;2023-02-03T11:04:32;3.33;;;2.47;;
15633;SDS011;14654;48.898;8.308;2023-02-03T11:06:59;2.40;;;2.20;;
15633;SDS011;14654;48.898;8.308;2023-02-03T11:09:37;3.97;;;2.27;;
15633;SDS011;14654;48.898;8.308;2023-02-03T11:12:09;2.43;;;2.23;;
15633;SDS011;14654;48.898;8.308;2023-02-03T11:14:40;2.20;;;1.97;;
15633;SDS011;14654;48.898;8.308;2023-02-03T11:17:14;3.03;;;1.93;;
15633;SDS011;14654;48.898;8.308;2023-02-03T11:19:48;3.03;;;1.97;;
15633;SDS011;14654;48.898;8.308;2023-02-03T11:22:31;2.13;;;1.93;;
15633;SDS011;14654;48.898;8.308;2023-02-03T11:25:03;3.73;;;2.17;;
15633;SDS011;14654;48.898;8.308;2023-02-03T11:27:41;2.50;;;2.27;;
15633;SDS011;14654;48.898;8.308;2023-02-03T11:30:14;3.63;;;2.47;;
15633;SDS011;14654;48.898;8.308;2023-02-03T11:32:45;2.87;;;2.13;;
15633;SDS011;14654;48.898;8.308;2023-02-03T11:35:25;2.63;;;2.40;;
15633;SDS011;14654;48.898;8.308;2023-02-03T11:37:53;3.37;;;3.07;;
15633;SDS011;14654;48.898;8.308;2023-02-03T11:40:25;3.47;;;2.90;;
15633;SDS011;14654;48.898;8.308;2023-02-03T11:47:59;4.37;;;2.30;;
15633;SDS011;14654;48.898;8.308;2023-02-03T11:50:32;2.90;;;2.20;;
15633;SDS011;14654;48.898;8.308;2023-02-03T11:58:19;2.87;;;2.23;;
15633;SDS011;14654;48.898;8.308;2023-02-03T12:03:59;4.40;;;2.50;;
15633;SDS011;14654;48.898;8.308;2023-02-03T12:12:20;2.17;;;1.80;;
15633;SDS011;14654;48.898;8.308;2023-02-03T12:30:45;1.20;;;1.03;;
15633;SDS011;14654;48.898;8.308;2023-02-03T12:33:18;1.30;;;1.10;;
15633;SDS011;14654;48.898;8.308;2023-02-03T12:35:50;1.00;;;0.90;;
15633;SDS011;14654;48.898;8.308;2023-02-03T12:41:20;0.93;;;0.80;;
15633;SDS011;14654;48.898;8.308;2023-02-03T12:43:53;1.40;;;0.90;;
15633;SDS011;14654;48.898;8.308;2023-02-03T12:46:29;0.67;;;0.60;;
15633;SDS011;14654;48.898;8.308;2023-02-03T12:49:04;0.90;;;0.70;;
15633;SDS011;14654;48.898;8.308;2023-02-03T12:51:49;1.33;;;0.70;;
15633;SDS011;14654;48.898;8.308;2023-02-03T12:59:51;1.77;;;0.83;;
15633;SDS011;14654;48.898;8.308;2023-02-03T13:02:25;1.17;;;0.70;;
15633;SDS011;14654;48.898;8.308;2023-02-03T13:04:55;1.20;;;0.80;;
15633;SDS011;14654;48.898;8.308;2023-02-03T13:07:38;1.33;;;0.90;;
15633;SDS011;14654;48.898;8.308;2023-02-03T13:13:02;0.70;;;0.70;;
15633;SDS011;14654;48.898;8.308;2023-02-03T13:15:39;0.70;;;0.70;;
15633;SDS011;14654;48.898;8.308;2023-02-03T13:20:53;1.03;;;0.60;;
15633;SDS011;14654;48.898;8.308;2023-02-03T13:23:19;0.93;;;0.80;;
15633;SDS011;14654;48.898;8.308;2023-02-03T13:25:56;0.90;;;0.80;;
15633;SDS011;14654;48.898;8.308;2023-02-03T13:47:54;1.63;;;0.80;;
15633;SDS011;14654;48.898;8.308;2023-02-03T13:50:23;1.00;;;0.70;;
15633;SDS011;14654;48.898;8.308;2023-02-03T13:53:01;0.97;;;0.80;;
15633;SDS011;14654;48.898;8.308;2023-02-03T13:58:02;1.00;;;0.90;;
15633;SDS011;14654;48.898;8.308;2023-02-03T14:03:18;1.00;;;0.80;;
15633;SDS011;14654;48.898;8.308;2023-02-03T14:06:02;0.50;;;0.50;;
15633;SDS011;14654;48.898;8.308;2023-02-03T14:16:28;0.63;;;0.57;;
15633;SDS011;14654;48.898;8.308;2023-02-03T14:18:58;0.80;;;0.70;;
15633;SDS011;14654;48.898;8.308;2023-02-03T14:21:24;1.10;;;0.70;;
15633;SDS011;14654;48.898;8.308;2023-02-03T14:24:01;0.73;;;0.60;;
15633;SDS011;14654;48.898;8.308;2023-02-03T14:26:42;1.13;;;0.70;;
15633;SDS011;14654;48.898;8.308;2023-02-03T14:34:19;1.37;;;0.77;;
15633;SDS011;14654;48.898;8.308;2023-02-03T14:36:54;0.67;;;0.67;;
15633;SDS011;14654;48.898;8.308;2023-02-03T14:47:25;0.80;;;0.60;;
15633;SDS011;14654;48.898;8.308;2023-02-03T14:52:57;1.60;;;0.70;;
15633;SDS011;14654;48.898;8.308;2023-02-03T15:00:44;1.47;;;0.73;;
15633;SDS011;14654;48.898;8.308;2023-02-03T15:03:13;0.97;;;0.50;;
15633;SDS011;14654;48.898;8.308;2023-02-03T15:11:23;1.47;;;0.70;;
15633;SDS011;14654;48.898;8.308;2023-02-03T15:13:49;0.67;;;0.67;;
15633;SDS011;14654;48.898;8.308;2023-02-03T15:16:16;0.70;;;0.60;;
15633;SDS011;14654;48.898;8.308;2023-02-03T15:18:44;0.47;;;0.43;;
15633;SDS011;14654;48.898;8.308;2023-02-03T15:21:17;0.90;;;0.70;;
15633;SDS011;14654;48.898;8.308;2023-02-03T15:23:44;1.40;;;1.00;;
15633;SDS011;14654;48.898;8.308;2023-02-03T15:26:17;0.77;;;0.70;;
15633;SDS011;14654;48.898;8.308;2023-02-03T15:33:56;1.20;;;0.90;;
15633;SDS011;14654;48.898;8.308;2023-02-03T15:36:31;0.70;;;0.70;;
15633;SDS011;14654;48.898;8.308;2023-02-03T15:42:00;0.87;;;0.60;;
15633;SDS011;14654;48.898;8.308;2023-02-03T15:44:32;0.93;;;0.73;;
15633;SDS011;14654;48.898;8.308;2023-02-03T15:47:03;0.60;;;0.60;;
15633;SDS011;14654;48.898;8.308;2023-02-03T15:49:42;0.83;;;0.70;;
15633;SDS011;14654;48.898;8.308;2023-02-03T15:54:40;0.77;;;0.50;;
15633;SDS011;14654;48.898;8.308;2023-02-03T15:57:15;0.70;;;0.70;;
15633;SDS011;14654;48.898;8.308;2023-02-03T15:59:45;0.97;;;0.87;;
15633;SDS011;14654;48.898;8.308;2023-02-03T16:02:18;0.70;;;0.67;;
15633;SDS011;14654;48.898;8.308;2023-02-03T16:04:47;0.67;;;0.60;;
15633;SDS011;14654;48.898;8.308;2023-02-03T16:07:17;0.60;;;0.57;;
15633;SDS011;14654;48.898;8.308;2023-02-03T16:09:45;0.70;;;0.60;;
15633;SDS011;14654;48.898;8.308;2023-02-03T16:12:17;1.17;;;0.80;;
15633;SDS011;14654;48.898;8.308;2023-02-03T16:14:46;0.70;;;0.60;;
15633;SDS011;14654;48.898;8.308;2023-02-03T16:22:35;0.90;;;0.90;;
15633;SDS011;14654;48.898;8.308;2023-02-03T16:25:22;0.83;;;0.67;;
15633;SDS011;14654;48.898;8.308;2023-02-03T16:27:56;1.10;;;0.80;;
15633;SDS011;14654;48.898;8.308;2023-02-03T16:30:56;0.80;;;0.70;;
15633;SDS011;14654;48.898;8.308;2023-02-03T16:33:48;1.17;;;0.80;;
15633;SDS011;14654;48.898;8.308;2023-02-03T16:36:33;0.70;;;0.60;;
15633;SDS011;14654;48.898;8.308;2023-02-03T16:39:21;0.97;;;0.63;;
15633;SDS011;14654;48.898;8.308;2023-02-03T16:42:08;1.73;;;1.00;;
15633;SDS011;14654;48.898;8.308;2023-02-03T16:44:58;1.10;;;0.80;;
15633;SDS011;14654;48.898;8.308;2023-02-03T16:47:42;1.80;;;0.90;;
15633;SDS011;14654;48.898;8.308;2023-02-03T16:50:28;0.67;;;0.67;;
15633;SDS011;14654;48.898;8.308;2023-02-03T16:53:16;1.13;;;0.80;;
15633;SDS011;14654;48.898;8.308;2023-02-03T16:55:44;1.60;;;0.80;;
15633;SDS011;14654;48.898;8.308;2023-02-03T16:58:10;0.77;;;0.77;;
15633;SDS011;14654;48.898;8.308;2023-02-03T17:00:36;0.80;;;0.80;;
15633;SDS011;14654;48.898;8.308;2023-02-03T17:03:05;1.30;;;0.90;;
15633;SDS011;14654;48.898;8.308;2023-02-03T17:05:35;0.60;;;0.60;;
15633;SDS011;14654;48.898;8.308;2023-02-03T17:08:02;0.83;;;0.77;;
15633;SDS011;14654;48.898;8.308;2023-02-03T17:10:27;1.00;;;0.90;;
15633;SDS011;14654;48.898;8.308;2023-02-03T17:12:52;0.97;;;0.80;;
15633;SDS011;14654;48.898;8.308;2023-02-03T17:15:18;1.13;;;0.73;;
15633;SDS011;14654;48.898;8.308;2023-02-03T17:17:43;1.10;;;1.00;;
15633;SDS011;14654;48.898;8.308;2023-02-03T17:20:08;1.83;;;1.00;;
15633;SDS011;14654;48.898;8.308;2023-02-03T17:22:34;0.93;;;0.80;;
15633;SDS011;14654;48.898;8.308;2023-02-03T17:24:59;1.30;;;0.97;;
15633;SDS011;14654;48.898;8.308;2023-02-03T17:27:25;1.37;;;0.93;;
15633;SDS011;14654;48.898;8.308;2023-02-03T17:29:50;0.80;;;0.80;;
15633;SDS011;14654;48.898;8.308;2023-02-03T17:32:15;0.73;;;0.70;;
15633;SDS011;14654;48.898;8.308;2023-02-03T17:34:41;0.97;;;0.90;;
15633;SDS011;14654;48.898;8.308;2023-02-03T17:37:06;0.90;;;0.90;;
15633;SDS011;14654;48.898;8.308;2023-02-03T17:39:31;1.10;;;1.00;;
15633;SDS011;14654;48.898;8.308;2023-02-03T17:41:57;1.10;;;1.00;;
15633;SDS011;14654;48.898;8.308;2023-02-03T17:44:22;1.13;;;1.00;;